createdAt,value
2017-03-04T00:00:36.687Z,7.13
2017-03-04T00:01:37.932Z,7.15
2017-03-04T00:02:39.213Z,7.17
2017-03-04T00:03:40.453Z,7.17
2017-03-04T00:04:41.686Z,7.16
2017-03-04T00:05:42.940Z,7.17
2017-03-04T00:06:44.184Z,7.15
2017-03-04T00:07:45.484Z,7.23
2017-03-04T00:08:46.733Z,7.19
2017-03-04T00:09:47.974Z,7.16
2017-03-04T00:10:49.193Z,7.17
2017-03-04T00:11:50.427Z,7.19
2017-03-04T00:12:51.663Z,7.26
2017-03-04T00:13:52.888Z,7.17
2017-03-04T00:14:54.127Z,7.19
2017-03-04T00:15:55.389Z,7.16
2017-03-04T00:16:56.628Z,7.09
2017-03-04T00:17:57.866Z,7.17
2017-03-04T00:18:59.128Z,7.19
2017-03-04T00:20:00.494Z,7.16
2017-03-04T00:21:01.731Z,7.12
2017-03-04T00:22:02.968Z,7.15
2017-03-04T00:23:04.203Z,7.15
2017-03-04T00:24:05.432Z,7.09
2017-03-04T00:25:06.685Z,7.15
2017-03-04T00:26:07.920Z,7.04
2017-03-04T00:27:09.155Z,7.04
2017-03-04T00:28:10.459Z,7.02
2017-03-04T00:29:11.782Z,7.02
2017-03-04T00:30:12.995Z,7.04
2017-03-04T00:31:14.239Z,7.15
2017-03-04T00:32:15.494Z,7.09
2017-03-04T00:33:16.846Z,7.09
2017-03-04T00:34:18.026Z,7.12
2017-03-04T00:35:19.265Z,7.16
2017-03-04T00:36:20.513Z,7.05
2017-03-04T00:37:21.728Z,7.19
2017-03-04T00:38:22.980Z,7.07
2017-03-04T00:39:24.226Z,7.13
2017-03-04T00:40:25.491Z,7.19
2017-03-04T00:41:26.757Z,7.12
2017-03-04T00:42:27.995Z,7.07
2017-03-04T00:43:29.233Z,7.09
2017-03-04T00:44:30.469Z,7.12
2017-03-04T00:45:31.712Z,7.16
2017-03-04T00:46:32.947Z,7.23
2017-03-04T00:47:34.187Z,7.17
2017-03-04T00:48:35.460Z,7.17
2017-03-04T00:49:36.708Z,7.23
2017-03-04T00:50:37.947Z,7.13
2017-03-04T00:51:39.192Z,7.16
2017-03-04T00:52:40.507Z,7.22
2017-03-04T00:53:41.764Z,7.15
2017-03-04T00:54:43.007Z,7.16
2017-03-04T00:55:44.238Z,7.26
2017-03-04T00:56:45.515Z,7.17
2017-03-04T00:57:46.784Z,7.19
2017-03-04T00:58:48.015Z,7.26
2017-03-04T00:59:49.252Z,7.23
2017-03-04T01:00:50.491Z,7.22
2017-03-04T01:01:51.732Z,7.22
2017-03-04T01:02:52.968Z,7.24
2017-03-04T01:03:54.220Z,7.23
2017-03-04T01:04:55.512Z,7.26
2017-03-04T01:05:56.817Z,7.17
2017-03-04T01:06:57.988Z,7.23
2017-03-04T01:07:59.236Z,7.26
2017-03-04T01:09:00.493Z,7.19
2017-03-04T01:10:01.712Z,7.24
2017-03-04T01:11:02.950Z,7.19
2017-03-04T01:12:04.197Z,7.23
2017-03-04T01:13:05.471Z,7.2
2017-03-04T01:14:06.762Z,7.26
2017-03-04T01:15:07.999Z,7.15
2017-03-04T01:16:09.231Z,7.23
2017-03-04T01:17:10.476Z,7.23
2017-03-04T01:18:11.709Z,7.2
2017-03-04T01:19:12.947Z,7.17
2017-03-04T01:20:14.185Z,7.2
2017-03-04T01:21:15.424Z,7.16
2017-03-04T01:22:16.741Z,7.22
2017-03-04T01:23:17.987Z,7.16
2017-03-04T01:24:19.261Z,7.16
2017-03-04T01:25:20.514Z,7.15
2017-03-04T01:26:21.777Z,7.12
2017-03-04T01:27:23.019Z,6.97
2017-03-04T01:28:24.265Z,7.07
2017-03-04T01:29:25.535Z,7.08
2017-03-04T01:30:26.789Z,6.99
2017-03-04T01:31:28.058Z,6.98
2017-03-04T01:32:29.306Z,6.86
2017-03-04T01:33:30.558Z,6.84
2017-03-04T01:34:31.791Z,6.69
2017-03-04T01:35:33.055Z,6.71
2017-03-04T01:36:34.274Z,6.79
2017-03-04T01:37:35.509Z,6.66
2017-03-04T01:38:36.751Z,6.62
2017-03-04T01:39:37.986Z,6.63
2017-03-04T01:40:39.375Z,6.59
2017-03-04T01:41:40.643Z,6.56
2017-03-04T01:42:41.834Z,6.53
2017-03-04T01:43:43.067Z,6.59
2017-03-04T01:44:44.292Z,6.51
2017-03-04T01:45:45.515Z,6.61
2017-03-04T01:46:46.778Z,6.44
2017-03-04T01:47:48.021Z,6.51
2017-03-04T01:48:49.243Z,6.41
2017-03-04T01:49:50.467Z,6.41
2017-03-04T01:50:51.702Z,6.38
2017-03-04T01:51:53.057Z,6.35
2017-03-04T01:52:54.304Z,6.33
2017-03-04T01:53:55.548Z,6.36
2017-03-04T01:54:56.834Z,6.28
2017-03-04T01:55:58.071Z,6.3
2017-03-04T01:56:59.313Z,6.25
2017-03-04T01:58:00.559Z,6.26
2017-03-04T01:59:01.821Z,6.14
2017-03-04T02:00:03.042Z,6.21
2017-03-04T02:01:04.277Z,6.18
2017-03-04T02:02:05.505Z,6.14
2017-03-04T02:03:06.736Z,6.19
2017-03-04T02:04:07.973Z,6.16
2017-03-04T02:05:09.289Z,6.14
2017-03-04T02:06:10.612Z,6.13
2017-03-04T02:07:11.872Z,6.14
2017-03-04T02:08:13.102Z,6.1
2017-03-04T02:09:14.335Z,6.18
2017-03-04T02:10:15.564Z,6.07
2017-03-04T02:11:17.024Z,6.06
2017-03-04T02:12:18.370Z,6.13
2017-03-04T02:13:19.595Z,6.21
2017-03-04T02:14:20.860Z,6.04
2017-03-04T02:15:22.067Z,6.1
2017-03-04T02:16:23.305Z,6.18
2017-03-04T02:17:24.768Z,6.14
2017-03-04T02:18:25.915Z,6.18
2017-03-04T02:19:27.161Z,6.26
2017-03-04T02:20:28.396Z,6.21
2017-03-04T02:21:29.634Z,6.19
2017-03-04T02:22:30.873Z,6.28
2017-03-04T02:23:32.108Z,6.28
2017-03-04T02:24:33.362Z,6.22
2017-03-04T02:25:34.598Z,6.33
2017-03-04T02:26:35.956Z,6.25
2017-03-04T02:27:37.097Z,6.29
2017-03-04T02:28:38.357Z,6.32
2017-03-04T02:29:39.574Z,6.3
2017-03-04T02:30:40.906Z,6.3
2017-03-04T02:31:42.132Z,6.26
2017-03-04T02:32:43.369Z,6.35
2017-03-04T02:33:44.628Z,6.26
2017-03-04T02:34:45.873Z,6.25
2017-03-04T02:35:47.217Z,6.3
2017-03-04T02:36:48.461Z,6.33
2017-03-04T02:37:49.815Z,6.21
2017-03-04T02:38:51.148Z,6.16
2017-03-04T02:39:52.383Z,6.26
2017-03-04T02:40:53.614Z,6.26
2017-03-04T02:41:54.862Z,6.25
2017-03-04T02:42:56.103Z,6.25
2017-03-04T02:43:57.371Z,6.28
2017-03-04T02:44:58.625Z,6.32
2017-03-04T02:45:59.866Z,6.32
2017-03-04T02:47:01.099Z,6.28
2017-03-04T02:48:02.478Z,6.41
2017-03-04T02:49:03.824Z,6.36
2017-03-04T02:50:05.090Z,6.41
2017-03-04T02:51:06.337Z,6.44
2017-03-04T02:52:07.566Z,6.43
2017-03-04T02:53:08.814Z,6.59
2017-03-04T02:54:10.045Z,6.54
2017-03-04T02:55:11.394Z,6.62
2017-03-04T02:56:12.639Z,6.63
2017-03-04T02:57:13.860Z,6.65
2017-03-04T02:58:15.091Z,6.66
2017-03-04T02:59:16.338Z,6.62
2017-03-04T03:00:17.572Z,6.76
2017-03-04T03:01:18.890Z,6.79
2017-03-04T03:02:20.131Z,6.71
2017-03-04T03:03:21.381Z,6.69
2017-03-04T03:04:22.617Z,6.71
2017-03-04T03:05:23.865Z,6.73
2017-03-04T03:06:25.095Z,6.83
2017-03-04T03:07:26.348Z,6.72
2017-03-04T03:08:27.625Z,6.81
2017-03-04T03:09:28.914Z,6.83
2017-03-04T03:10:30.155Z,6.89
2017-03-04T03:11:31.402Z,6.94
2017-03-04T03:12:32.758Z,6.99
2017-03-04T03:13:34.008Z,7.02
2017-03-04T03:14:35.244Z,6.97
2017-03-04T03:15:36.468Z,7.05
2017-03-04T03:16:37.717Z,7.05
2017-03-04T03:17:38.963Z,6.97
2017-03-04T03:18:40.175Z,7.08
2017-03-04T03:19:41.420Z,7.12
2017-03-04T03:20:42.661Z,7.09
2017-03-04T03:21:43.892Z,7.19
2017-03-04T03:22:45.148Z,7.16
2017-03-04T03:23:46.418Z,7.23
2017-03-04T03:24:47.620Z,7.2
2017-03-04T03:25:48.902Z,7.17
2017-03-04T03:26:50.151Z,7.26
2017-03-04T03:27:51.366Z,7.31
2017-03-04T03:28:52.598Z,7.34
2017-03-04T03:29:53.846Z,7.34
2017-03-04T03:30:55.121Z,7.35
2017-03-04T03:31:56.351Z,7.37
2017-03-04T03:32:57.605Z,7.35
2017-03-04T03:33:58.866Z,7.34
2017-03-04T03:35:00.098Z,7.4
2017-03-04T03:36:01.355Z,7.41
2017-03-04T03:37:02.586Z,7.41
2017-03-04T03:38:03.824Z,7.38
2017-03-04T03:39:05.049Z,7.41
2017-03-04T03:40:06.407Z,7.35
2017-03-04T03:41:07.687Z,7.42
2017-03-04T03:42:09.017Z,7.44
2017-03-04T03:43:10.252Z,7.44
2017-03-04T03:44:11.542Z,7.45
2017-03-04T03:45:12.751Z,7.41
2017-03-04T03:46:13.998Z,7.42
2017-03-04T03:47:15.272Z,7.4
2017-03-04T03:48:16.565Z,7.45
2017-03-04T03:49:17.793Z,7.42
2017-03-04T03:50:19.058Z,7.53
2017-03-04T03:51:20.274Z,7.52
2017-03-04T03:52:21.520Z,7.42
2017-03-04T03:53:22.933Z,7.53
2017-03-04T03:54:24.276Z,7.53
2017-03-04T03:55:25.499Z,7.58
2017-03-04T03:56:26.732Z,7.53
2017-03-04T03:57:27.964Z,7.53
2017-03-04T03:58:29.240Z,7.53
2017-03-04T03:59:30.472Z,7.56
2017-03-04T04:00:31.706Z,7.58
2017-03-04T04:01:32.948Z,7.55
2017-03-04T04:02:34.164Z,7.59
2017-03-04T04:03:35.408Z,7.55
2017-03-04T04:04:36.628Z,7.56
2017-03-04T04:05:37.884Z,7.59
2017-03-04T04:06:39.112Z,7.66
2017-03-04T04:07:40.395Z,7.59
2017-03-04T04:08:41.642Z,7.55
2017-03-04T04:09:42.955Z,7.53
2017-03-04T04:10:44.188Z,7.53
2017-03-04T04:11:45.434Z,7.6
2017-03-04T04:12:46.709Z,7.67
2017-03-04T04:13:47.947Z,7.69
2017-03-04T04:14:49.201Z,7.66
2017-03-04T04:15:50.421Z,7.77
2017-03-04T04:16:51.659Z,7.87
2017-03-04T04:17:52.897Z,7.79
2017-03-04T04:18:54.128Z,7.84
2017-03-04T04:19:55.376Z,7.89
2017-03-04T04:20:56.614Z,7.82
2017-03-04T04:21:57.926Z,7.87
2017-03-04T04:22:59.145Z,7.92
2017-03-04T04:24:00.356Z,7.9
2017-03-04T04:25:01.605Z,7.89
2017-03-04T04:26:02.966Z,7.94
2017-03-04T04:27:04.232Z,7.89
2017-03-04T04:28:05.472Z,7.89
2017-03-04T04:29:06.718Z,7.87
2017-03-04T04:30:07.947Z,7.9
2017-03-04T04:31:09.235Z,7.92
2017-03-04T04:32:10.491Z,7.84
2017-03-04T04:33:11.731Z,7.94
2017-03-04T04:34:12.964Z,7.94
2017-03-04T04:35:14.219Z,7.93
2017-03-04T04:36:15.431Z,8.03
2017-03-04T04:37:16.671Z,8.1
2017-03-04T04:38:17.904Z,8.08
2017-03-04T04:39:19.230Z,7.97
2017-03-04T04:40:20.493Z,8.1
2017-03-04T04:41:21.706Z,8.12
2017-03-04T04:42:22.943Z,8.1
2017-03-04T04:43:24.179Z,8.08
2017-03-04T04:44:25.508Z,8.03
2017-03-04T04:45:26.760Z,8
2017-03-04T04:46:27.991Z,8.04
2017-03-04T04:47:29.229Z,8.03
2017-03-04T04:48:30.467Z,8.15
2017-03-04T04:49:31.720Z,8.08
2017-03-04T04:50:32.947Z,8.11
2017-03-04T04:51:34.226Z,8.03
2017-03-04T04:52:35.597Z,8.04
2017-03-04T04:53:36.866Z,8.07
2017-03-04T04:54:38.075Z,7.99
2017-03-04T04:55:39.304Z,8.1
2017-03-04T04:56:40.554Z,8.11
2017-03-04T04:57:41.841Z,8.07
2017-03-04T04:58:43.090Z,8.07
2017-03-04T04:59:44.344Z,8.03
2017-03-04T05:00:45.550Z,8
2017-03-04T05:01:46.789Z,8
2017-03-04T05:02:48.027Z,7.97
2017-03-04T05:03:49.265Z,8.02
2017-03-04T05:04:50.534Z,8.02
2017-03-04T05:05:51.769Z,8.02
2017-03-04T05:06:53.010Z,8.02
2017-03-04T05:07:54.242Z,8
2017-03-04T05:08:55.472Z,8
2017-03-04T05:09:56.821Z,7.93
2017-03-04T05:10:58.056Z,8.03
2017-03-04T05:11:59.325Z,7.99
2017-03-04T05:13:00.566Z,7.97
2017-03-04T05:14:01.803Z,8.03
2017-03-04T05:15:03.055Z,7.99
2017-03-04T05:16:04.297Z,8.03
2017-03-04T05:17:05.646Z,8.02
2017-03-04T05:18:06.883Z,7.97
2017-03-04T05:19:08.120Z,7.87
2017-03-04T05:20:09.363Z,7.96
2017-03-04T05:21:10.589Z,7.93
2017-03-04T05:22:11.823Z,7.99
2017-03-04T05:23:13.141Z,8
2017-03-04T05:24:14.426Z,8.02
2017-03-04T05:25:15.659Z,7.93
2017-03-04T05:26:16.946Z,8
2017-03-04T05:27:18.157Z,7.89
2017-03-04T05:28:19.398Z,7.92
2017-03-04T05:29:20.706Z,7.85
2017-03-04T05:30:21.983Z,7.93
2017-03-04T05:31:23.270Z,7.92
2017-03-04T05:32:24.530Z,7.9
2017-03-04T05:33:25.749Z,7.89
2017-03-04T05:34:26.993Z,7.89
2017-03-04T05:35:28.228Z,7.89
2017-03-04T05:36:29.487Z,7.84
2017-03-04T05:37:30.861Z,7.67
2017-03-04T05:38:32.102Z,7.79
2017-03-04T05:39:33.334Z,7.84
2017-03-04T05:40:34.558Z,7.82
2017-03-04T05:41:35.791Z,7.9
2017-03-04T05:42:37.030Z,7.89
2017-03-04T05:43:38.282Z,7.93
2017-03-04T05:44:39.528Z,7.96
2017-03-04T05:45:40.773Z,7.93
2017-03-04T05:46:42.079Z,7.96
2017-03-04T05:47:43.275Z,7.96
2017-03-04T05:48:44.606Z,8.02
2017-03-04T05:49:45.857Z,8.07
2017-03-04T05:50:47.163Z,8.03
2017-03-04T05:51:48.425Z,8.07
2017-03-04T05:52:49.672Z,8.07
2017-03-04T05:53:50.923Z,8.08
2017-03-04T05:54:52.183Z,8.1
2017-03-04T05:55:53.501Z,8.1
2017-03-04T05:56:54.737Z,8.14
2017-03-04T05:57:55.976Z,8.12
2017-03-04T05:58:57.219Z,8.15
2017-03-04T05:59:58.445Z,8.26
2017-03-04T06:00:59.686Z,8.26
2017-03-04T06:02:01.089Z,8.26
2017-03-04T06:03:02.363Z,8.26
2017-03-04T06:04:03.614Z,8.3
2017-03-04T06:05:04.850Z,8.39
2017-03-04T06:06:06.076Z,8.42
2017-03-04T06:07:07.321Z,8.32
2017-03-04T06:08:08.641Z,8.32
2017-03-04T06:09:09.940Z,8.32
2017-03-04T06:10:11.180Z,8.39
2017-03-04T06:11:12.411Z,8.33
2017-03-04T06:12:13.651Z,8.28
2017-03-04T06:13:14.959Z,8.32
2017-03-04T06:14:16.198Z,8.37
2017-03-04T06:15:17.454Z,8.32
2017-03-04T06:16:18.816Z,8.36
2017-03-04T06:17:20.076Z,8.35
2017-03-04T06:18:21.306Z,8.37
2017-03-04T06:19:22.539Z,8.36
2017-03-04T06:20:23.825Z,8.44
2017-03-04T06:21:25.059Z,8.35
2017-03-04T06:22:26.362Z,8.39
2017-03-04T06:23:27.521Z,8.39
2017-03-04T06:24:28.756Z,8.37
2017-03-04T06:25:29.989Z,8.45
2017-03-04T06:26:31.244Z,8.51
2017-03-04T06:27:32.527Z,8.45
2017-03-04T06:28:33.912Z,8.53
2017-03-04T06:29:35.231Z,8.48
2017-03-04T06:30:36.480Z,8.48
2017-03-04T06:31:37.734Z,8.54
2017-03-04T06:32:38.986Z,8.62
2017-03-04T06:33:40.217Z,8.55
2017-03-04T06:34:41.627Z,8.55
2017-03-04T06:35:42.879Z,8.54
2017-03-04T06:36:44.103Z,8.55
2017-03-04T06:37:45.439Z,8.58
2017-03-04T06:38:46.666Z,8.54
2017-03-04T06:39:47.920Z,8.68
2017-03-04T06:40:49.146Z,8.65
2017-03-04T06:41:50.372Z,8.66
2017-03-04T06:42:51.612Z,8.66
2017-03-04T06:43:52.850Z,8.63
2017-03-04T06:44:54.102Z,8.66
2017-03-04T06:45:55.368Z,8.73
2017-03-04T06:46:56.605Z,8.75
2017-03-04T06:47:57.907Z,8.73
2017-03-04T06:48:59.136Z,8.76
2017-03-04T06:50:00.377Z,8.79
2017-03-04T06:51:01.605Z,8.78
2017-03-04T06:52:03.003Z,8.86
2017-03-04T06:53:04.174Z,8.83
2017-03-04T06:54:05.430Z,8.83
2017-03-04T06:55:06.640Z,8.88
2017-03-04T06:56:07.880Z,8.9
2017-03-04T06:57:09.128Z,8.9
2017-03-04T06:58:10.411Z,8.94
2017-03-04T06:59:11.619Z,8.94
2017-03-04T07:00:12.860Z,8.97
2017-03-04T07:01:14.113Z,8.94
2017-03-04T07:02:15.370Z,9.05
2017-03-04T07:03:16.583Z,9.09
2017-03-04T07:04:17.822Z,9.02
2017-03-04T07:05:19.086Z,9.13
2017-03-04T07:06:20.316Z,9.09
2017-03-04T07:07:21.662Z,9.2
2017-03-04T07:08:22.900Z,9.13
2017-03-04T07:09:24.139Z,9.15
2017-03-04T07:10:25.420Z,9.27
2017-03-04T07:11:26.689Z,9.24
2017-03-04T07:12:27.930Z,9.24
2017-03-04T07:13:29.191Z,9.3
2017-03-04T07:14:30.499Z,9.48
2017-03-04T07:15:31.750Z,9.43
2017-03-04T07:16:32.984Z,9.46
2017-03-04T07:17:34.217Z,9.5
2017-03-04T07:18:35.476Z,9.58
2017-03-04T07:19:36.765Z,9.64
2017-03-04T07:20:38.154Z,9.67
2017-03-04T07:21:39.393Z,9.76
2017-03-04T07:22:40.844Z,9.78
2017-03-04T07:23:42.081Z,9.83
2017-03-04T07:24:43.378Z,10
2017-03-04T07:25:44.631Z,9.97
2017-03-04T07:26:45.870Z,10.09
2017-03-04T07:27:47.136Z,10.07
2017-03-04T07:28:48.358Z,10.14
2017-03-04T07:29:49.742Z,10.18
2017-03-04T07:30:51.035Z,10.21
2017-03-04T07:31:52.298Z,10.28
2017-03-04T07:32:53.540Z,10.36
2017-03-04T07:33:54.783Z,10.34
2017-03-04T07:34:56.054Z,10.39
2017-03-04T07:35:57.293Z,10.36
2017-03-04T07:36:58.536Z,10.36
2017-03-04T07:37:59.807Z,10.4
2017-03-04T07:39:01.055Z,10.42
2017-03-04T07:40:02.294Z,10.46
2017-03-04T07:41:03.640Z,10.42
2017-03-04T07:42:04.884Z,10.42
2017-03-04T07:43:06.143Z,10.46
2017-03-04T07:44:07.372Z,10.42
2017-03-04T07:45:08.664Z,10.46
2017-03-04T07:46:09.880Z,10.44
2017-03-04T07:47:11.133Z,10.52
2017-03-04T07:48:12.397Z,10.46
2017-03-04T07:49:13.740Z,10.42
2017-03-04T07:50:14.959Z,10.44
2017-03-04T07:51:16.201Z,10.53
2017-03-04T07:52:17.427Z,10.51
2017-03-04T07:53:18.661Z,10.52
2017-03-04T07:54:19.912Z,10.53
2017-03-04T07:55:21.172Z,10.62
2017-03-04T07:56:22.424Z,10.62
2017-03-04T07:57:23.854Z,10.65
2017-03-04T07:58:25.063Z,10.77
2017-03-04T07:59:26.296Z,10.89
2017-03-04T08:00:27.564Z,10.91
2017-03-04T08:01:29.036Z,11.03
2017-03-04T08:02:30.333Z,11.14
2017-03-04T08:03:31.549Z,11.28
2017-03-04T08:04:32.795Z,11.32
2017-03-04T08:05:34.043Z,11.36
2017-03-04T08:06:35.383Z,11.57
2017-03-04T08:07:36.622Z,11.56
2017-03-04T08:08:37.875Z,11.59
2017-03-04T08:09:39.182Z,11.62
2017-03-04T08:10:40.447Z,11.71
2017-03-04T08:11:41.708Z,11.97
2017-03-04T08:12:42.979Z,12.12
2017-03-04T08:13:44.240Z,12.24
2017-03-04T08:14:45.474Z,12.45
2017-03-04T08:15:46.726Z,12.51
2017-03-04T08:16:47.979Z,12.67
2017-03-04T08:17:49.256Z,12.67
2017-03-04T08:18:50.502Z,12.77
2017-03-04T08:19:51.781Z,12.88
2017-03-04T08:20:53.040Z,12.84
2017-03-04T08:21:54.357Z,12.87
2017-03-04T08:22:55.543Z,12.85
2017-03-04T08:23:56.821Z,13.09
2017-03-04T08:24:58.060Z,13.27
2017-03-04T08:25:59.314Z,13.46
2017-03-04T08:27:00.553Z,13.63
2017-03-04T08:28:01.794Z,13.67
2017-03-04T08:29:03.063Z,13.77
2017-03-04T08:30:04.326Z,13.87
2017-03-04T08:31:05.623Z,13.92
2017-03-04T08:32:06.920Z,13.89
2017-03-04T08:33:08.191Z,14.13
2017-03-04T08:34:09.425Z,14.07
2017-03-04T08:35:10.680Z,13.91
2017-03-04T08:36:11.922Z,13.89
2017-03-04T08:37:13.179Z,13.81
2017-03-04T08:38:14.445Z,13.63
2017-03-04T08:39:15.697Z,13.77
2017-03-04T08:40:16.973Z,13.8
2017-03-04T08:41:18.268Z,13.77
2017-03-04T08:42:19.505Z,13.8
2017-03-04T08:43:20.746Z,13.8
2017-03-04T08:44:22.012Z,13.87
2017-03-04T08:45:23.265Z,13.8
2017-03-04T08:46:24.512Z,13.58
2017-03-04T08:47:25.757Z,13.59
2017-03-04T08:48:27.039Z,13.61
2017-03-04T08:49:28.256Z,13.77
2017-03-04T08:50:29.521Z,13.76
2017-03-04T08:51:30.920Z,13.79
2017-03-04T08:52:32.165Z,13.76
2017-03-04T08:53:33.471Z,13.63
2017-03-04T08:54:34.695Z,13.74
2017-03-04T08:55:35.956Z,13.71
2017-03-04T08:56:37.219Z,13.84
2017-03-04T08:57:38.473Z,13.79
2017-03-04T08:58:39.710Z,13.73
2017-03-04T08:59:40.960Z,13.89
2017-03-04T09:00:42.279Z,13.77
2017-03-04T09:01:43.503Z,13.92
2017-03-04T09:02:44.721Z,13.96
2017-03-04T09:03:45.967Z,13.8
2017-03-04T09:04:47.190Z,13.84
2017-03-04T09:05:48.415Z,13.92
2017-03-04T09:06:49.660Z,14.04
2017-03-04T09:07:50.909Z,14.1
2017-03-04T09:08:52.165Z,14.14
2017-03-04T09:09:53.504Z,14.25
2017-03-04T09:10:54.761Z,14.29
2017-03-04T09:11:56.014Z,14.37
2017-03-04T09:12:57.407Z,14.38
2017-03-04T09:13:58.655Z,14.34
2017-03-04T09:14:59.908Z,14.42
2017-03-04T09:16:01.407Z,14.46
2017-03-04T09:17:02.744Z,14.52
2017-03-04T09:18:03.934Z,14.56
2017-03-04T09:19:05.181Z,14.65
2017-03-04T09:20:06.434Z,14.74
2017-03-04T09:21:07.751Z,14.67
2017-03-04T09:22:09.033Z,14.65
2017-03-04T09:23:10.261Z,14.52
2017-03-04T09:24:11.546Z,14.65
2017-03-04T09:25:12.776Z,14.64
2017-03-04T09:26:14.010Z,14.83
2017-03-04T09:27:15.266Z,14.75
2017-03-04T09:28:16.551Z,14.68
2017-03-04T09:29:17.737Z,14.67
2017-03-04T09:30:18.959Z,14.52
2017-03-04T09:31:20.216Z,14.52
2017-03-04T09:32:21.464Z,14.52
2017-03-04T09:33:22.713Z,14.62
2017-03-04T09:34:23.969Z,14.64
2017-03-04T09:35:25.221Z,14.68
2017-03-04T09:36:26.494Z,14.78
2017-03-04T09:37:27.759Z,14.78
2017-03-04T09:38:28.976Z,14.86
2017-03-04T09:39:30.214Z,14.91
2017-03-04T09:40:31.486Z,14.94
2017-03-04T09:41:32.872Z,15.13
2017-03-04T09:42:34.118Z,15.15
2017-03-04T09:43:35.372Z,15.33
2017-03-04T09:44:36.617Z,15.31
2017-03-04T09:45:37.862Z,15.24
2017-03-04T09:46:39.112Z,15.26
2017-03-04T09:47:40.420Z,15.08
2017-03-04T09:48:41.683Z,15.23
2017-03-04T09:49:42.930Z,15.39
2017-03-04T09:50:44.191Z,15.46
2017-03-04T09:51:45.431Z,15.67
2017-03-04T09:52:46.667Z,15.75
2017-03-04T09:53:47.917Z,15.82
2017-03-04T09:54:49.167Z,15.88
2017-03-04T09:55:50.414Z,15.96
2017-03-04T09:56:51.721Z,15.94
2017-03-04T09:57:52.987Z,15.88
2017-03-04T09:58:54.320Z,16
2017-03-04T09:59:55.589Z,16.15
2017-03-04T10:00:56.942Z,16.09
2017-03-04T10:01:58.205Z,16.15
2017-03-04T10:02:59.437Z,16.18
2017-03-04T10:04:00.680Z,16.4
2017-03-04T10:05:01.948Z,16.59
2017-03-04T10:06:03.238Z,16.62
2017-03-04T10:07:04.481Z,16.78
2017-03-04T10:08:05.758Z,16.99
2017-03-04T10:09:07.022Z,17.14
2017-03-04T10:10:08.250Z,17.07
2017-03-04T10:11:09.515Z,17.22
2017-03-04T10:12:10.803Z,17.28
2017-03-04T10:13:12.081Z,17.29
2017-03-04T10:14:13.342Z,17.32
2017-03-04T10:15:14.608Z,17.41
2017-03-04T10:16:15.860Z,17.64
2017-03-04T10:17:17.101Z,17.66
2017-03-04T10:18:18.361Z,17.59
2017-03-04T10:19:19.573Z,17.51
2017-03-04T10:20:20.978Z,17.41
2017-03-04T10:21:22.252Z,17.44
2017-03-04T10:22:23.480Z,17.4
2017-03-04T10:23:24.701Z,17.38
2017-03-04T10:24:25.953Z,17.33
2017-03-04T10:25:27.215Z,17.51
2017-03-04T10:26:28.529Z,17.55
2017-03-04T10:27:29.788Z,17.13
2017-03-04T10:28:31.038Z,17.06
2017-03-04T10:29:32.321Z,17.29
2017-03-04T10:30:33.588Z,17.41
2017-03-04T10:31:34.851Z,17.46
2017-03-04T10:32:36.183Z,17.46
2017-03-04T10:33:37.450Z,17.55
2017-03-04T10:34:38.718Z,17.79
2017-03-04T10:35:39.944Z,17.57
2017-03-04T10:36:41.253Z,17.63
2017-03-04T10:37:42.498Z,17.85
2017-03-04T10:38:43.785Z,17.99
2017-03-04T10:39:45.082Z,18.12
2017-03-04T10:40:46.342Z,18.09
2017-03-04T10:41:47.585Z,18.18
2017-03-04T10:42:48.864Z,18.15
2017-03-04T10:43:50.134Z,18.06
2017-03-04T10:44:51.407Z,17.95
2017-03-04T10:45:52.685Z,17.97
2017-03-04T10:46:53.922Z,17.89
2017-03-04T10:47:55.231Z,17.95
2017-03-04T10:48:56.462Z,17.85
2017-03-04T10:49:57.757Z,17.81
2017-03-04T10:50:59.109Z,17.74
2017-03-04T10:52:00.394Z,17.69
2017-03-04T10:53:01.631Z,17.51
2017-03-04T10:54:02.878Z,17.54
2017-03-04T10:55:04.119Z,17.55
2017-03-04T10:56:05.415Z,17.51
2017-03-04T10:57:06.661Z,17.46
2017-03-04T10:58:07.914Z,17.51
2017-03-04T10:59:09.180Z,17.46
2017-03-04T11:00:10.433Z,17.55
2017-03-04T11:01:11.733Z,17.67
2017-03-04T11:02:13.101Z,17.71
2017-03-04T11:03:14.328Z,17.82
2017-03-04T11:04:15.649Z,18
2017-03-04T11:05:16.906Z,18.17
2017-03-04T11:06:18.149Z,18.25
2017-03-04T11:07:19.398Z,18.07
2017-03-04T11:08:20.655Z,17.79
2017-03-04T11:09:22.038Z,17.7
2017-03-04T11:10:23.296Z,17.78
2017-03-04T11:11:24.524Z,17.99
2017-03-04T11:12:25.771Z,17.91
2017-03-04T11:13:27.014Z,17.66
2017-03-04T11:14:28.252Z,17.66
2017-03-04T11:15:29.516Z,17.26
2017-03-04T11:16:30.767Z,17.26
2017-03-04T11:17:32.020Z,17.4
2017-03-04T11:18:33.266Z,17.44
2017-03-04T11:19:34.534Z,17.51
2017-03-04T11:20:35.897Z,17.43
2017-03-04T11:21:37.155Z,17.29
2017-03-04T11:22:38.414Z,17.3
2017-03-04T11:23:39.641Z,17.25
2017-03-04T11:24:40.923Z,17.3
2017-03-04T11:25:42.191Z,17.35
2017-03-04T11:26:43.443Z,17.29
2017-03-04T11:27:44.708Z,17.43
2017-03-04T11:28:45.963Z,17.54
2017-03-04T11:29:47.209Z,17.47
2017-03-04T11:30:48.504Z,17.4
2017-03-04T11:31:49.736Z,17.38
2017-03-04T11:32:51.068Z,17.43
2017-03-04T11:33:52.303Z,17.46
2017-03-04T11:34:53.544Z,17.23
2017-03-04T11:35:54.775Z,17.18
2017-03-04T11:36:56.030Z,17.08
2017-03-04T11:37:57.395Z,16.83
2017-03-04T11:38:58.641Z,16.77
2017-03-04T11:40:00.023Z,16.73
2017-03-04T11:41:01.268Z,16.95
2017-03-04T11:42:02.547Z,16.95
2017-03-04T11:43:03.816Z,17.06
2017-03-04T11:44:05.061Z,17.14
2017-03-04T11:45:06.318Z,17.04
2017-03-04T11:46:07.585Z,17.06
2017-03-04T11:47:08.935Z,17.04
2017-03-04T11:48:10.113Z,17.04
2017-03-04T11:49:11.457Z,17.03
2017-03-04T11:50:12.743Z,17.07
2017-03-04T11:51:14.007Z,17.07
2017-03-04T11:52:15.329Z,17.07
2017-03-04T11:53:16.945Z,17.04
2017-03-04T11:54:18.098Z,17.06
2017-03-04T11:55:19.360Z,17.03
2017-03-04T11:56:20.604Z,16.81
2017-03-04T11:57:21.874Z,16.92
2017-03-04T11:58:23.193Z,16.99
2017-03-04T11:59:24.439Z,16.96
2017-03-04T12:00:25.672Z,16.9
2017-03-04T12:01:26.936Z,16.86
2017-03-04T12:02:28.186Z,16.8
2017-03-04T12:03:29.429Z,16.81
2017-03-04T12:04:30.881Z,16.83
2017-03-04T12:05:32.042Z,16.8
2017-03-04T12:06:33.292Z,16.88
2017-03-04T12:07:34.541Z,16.93
2017-03-04T12:08:35.804Z,17.03
2017-03-04T12:09:37.056Z,17.17
2017-03-04T12:10:38.324Z,17.13
2017-03-04T12:11:39.593Z,17.11
2017-03-04T12:12:40.834Z,17.07
2017-03-04T12:13:42.091Z,16.95
2017-03-04T12:14:43.346Z,16.93
2017-03-04T12:15:44.605Z,16.86
2017-03-04T12:16:45.859Z,16.92
2017-03-04T12:17:47.096Z,16.85
2017-03-04T12:18:48.368Z,16.8
2017-03-04T12:19:49.594Z,16.83
2017-03-04T12:20:50.924Z,16.83
2017-03-04T12:21:52.164Z,16.81
2017-03-04T12:22:53.407Z,16.78
2017-03-04T12:23:54.656Z,16.77
2017-03-04T12:24:55.973Z,16.85
2017-03-04T12:25:57.208Z,16.81
2017-03-04T12:26:58.452Z,16.96
2017-03-04T12:27:59.721Z,17.15
2017-03-04T12:29:01.043Z,17.26
2017-03-04T12:30:02.302Z,17.1
2017-03-04T12:31:03.669Z,17.2
2017-03-04T12:32:04.910Z,17.1
2017-03-04T12:33:06.145Z,17.33
2017-03-04T12:34:07.496Z,17.29
2017-03-04T12:35:08.835Z,17.59
2017-03-04T12:36:10.086Z,17.47
2017-03-04T12:37:11.350Z,17.28
2017-03-04T12:38:12.590Z,17.2
2017-03-04T12:39:13.829Z,17.18
2017-03-04T12:40:15.080Z,17.17
2017-03-04T12:41:16.351Z,17.25
2017-03-04T12:42:17.667Z,17.41
2017-03-04T12:43:18.911Z,17.46
2017-03-04T12:44:20.162Z,17.55
2017-03-04T12:45:21.567Z,17.48
2017-03-04T12:46:22.814Z,17.43
2017-03-04T12:47:24.175Z,17.44
2017-03-04T12:48:25.427Z,17.43
2017-03-04T12:49:26.722Z,17.48
2017-03-04T12:50:27.963Z,17.54
2017-03-04T12:51:29.230Z,17.47
2017-03-04T12:52:30.485Z,17.46
2017-03-04T12:53:31.830Z,17.47
2017-03-04T12:54:33.099Z,17.63
2017-03-04T12:55:34.420Z,17.59
2017-03-04T12:56:35.706Z,17.69
2017-03-04T12:57:36.992Z,17.5
2017-03-04T12:58:38.263Z,17.48
2017-03-04T12:59:39.516Z,17.48
2017-03-04T13:00:40.793Z,17.47
2017-03-04T13:01:42.020Z,17.32
2017-03-04T13:02:43.263Z,17.2
2017-03-04T13:03:44.500Z,17.22
2017-03-04T13:04:45.763Z,17.07
2017-03-04T13:05:47.041Z,17.18
2017-03-04T13:06:48.271Z,17.14
2017-03-04T13:07:49.631Z,17.11
2017-03-04T13:08:50.877Z,17.28
2017-03-04T13:09:52.212Z,17.2
2017-03-04T13:10:53.648Z,17.07
2017-03-04T13:11:55.003Z,17.14
2017-03-04T13:12:56.251Z,17.06
2017-03-04T13:13:57.502Z,17.15
2017-03-04T13:14:58.768Z,17.13
2017-03-04T13:16:00.043Z,17.03
2017-03-04T13:17:01.294Z,17.04
2017-03-04T13:18:02.549Z,17.07
2017-03-04T13:19:03.819Z,17.06
2017-03-04T13:20:05.059Z,17.17
2017-03-04T13:21:06.300Z,17.17
2017-03-04T13:22:07.548Z,17.2
2017-03-04T13:23:08.850Z,17.2
2017-03-04T13:24:10.076Z,17.03
2017-03-04T13:25:11.326Z,17.11
2017-03-04T13:26:12.560Z,17.15